createdAt,value
2023-04-18T00:01:44.496Z,8.68
2023-04-18T00:04:11.705Z,7.70
2023-04-18T00:06:38.587Z,8.18
2023-04-18T00:09:05.702Z,7.93
2023-04-18T00:11:32.559Z,8.10
2023-04-18T00:13:59.380Z,7.45
2023-04-18T00:16:27.220Z,7.80
2023-04-18T00:18:54.240Z,7.63
2023-04-18T00:21:23.217Z,7.65
2023-04-18T00:23:49.845Z,7.63
2023-04-18T00:26:16.419Z,7.55
2023-04-18T00:28:45.753Z,7.47
2023-04-18T00:31:12.549Z,8.27
2023-04-18T00:33:39.174Z,8.27
2023-04-18T00:36:06.116Z,7.95
2023-04-18T00:38:34.101Z,8.18
2023-04-18T00:41:00.700Z,8.73
2023-04-18T00:43:28.354Z,8.43
2023-04-18T00:45:56.999Z,8.63
2023-04-18T00:48:24.390Z,8.43
2023-04-18T00:50:51.126Z,7.80
2023-04-18T00:53:17.858Z,7.88
2023-04-18T00:55:44.708Z,8.38
2023-04-18T00:58:11.916Z,8.25
2023-04-18T01:00:38.538Z,8.60
2023-04-18T01:03:06.683Z,8.40
2023-04-18T01:05:35.126Z,8.10
2023-04-18T01:08:04.678Z,7.80
2023-04-18T01:10:36.104Z,8.68
2023-04-18T01:13:16.279Z,8.23
2023-04-18T01:18:11.984Z,8.65
2023-04-18T01:20:46.066Z,8.75
2023-04-18T01:23:14.773Z,8.75
2023-04-18T01:25:42.561Z,9.07
2023-04-18T01:28:10.444Z,8.43
2023-04-18T01:30:37.573Z,7.95
2023-04-18T01:33:06.088Z,8.77
2023-04-18T01:35:34.454Z,8.05
2023-04-18T01:38:01.444Z,8.85
2023-04-18T01:40:30.160Z,8.63
2023-04-18T01:42:57.656Z,8.95
2023-04-18T01:45:25.541Z,9.40
2023-04-18T01:47:53.369Z,8.90
2023-04-18T01:50:20.785Z,8.65
2023-04-18T01:52:47.974Z,8.80
2023-04-18T01:55:16.499Z,9.00
2023-04-18T01:57:43.706Z,9.93
2023-04-18T02:00:12.165Z,9.52
2023-04-18T02:02:42.684Z,9.32
2023-04-18T02:05:09.903Z,9.02
2023-04-18T02:07:41.076Z,9.77
2023-04-18T02:10:10.352Z,9.20
2023-04-18T02:12:37.963Z,9.85
2023-04-18T02:15:06.114Z,8.73
2023-04-18T02:17:36.332Z,9.18
2023-04-18T02:20:04.550Z,9.25
2023-04-18T02:22:32.072Z,9.70
2023-04-18T02:25:01.947Z,9.55
2023-04-18T02:27:31.295Z,9.70
2023-04-18T02:29:58.686Z,10.38
2023-04-18T02:32:25.937Z,10.32
2023-04-18T02:34:53.009Z,10.13
2023-04-18T02:37:19.968Z,10.23
2023-04-18T02:39:47.302Z,10.18
2023-04-18T02:42:14.414Z,10.18
2023-04-18T02:44:42.021Z,11.07
2023-04-18T02:47:09.916Z,9.88
2023-04-18T02:49:40.340Z,9.80
2023-04-18T02:52:07.922Z,10.40
2023-04-18T02:54:35.502Z,9.98
2023-04-18T02:57:07.801Z,10.32
2023-04-18T02:59:55.513Z,10.00
2023-04-18T03:02:50.034Z,9.98
2023-04-18T03:05:37.604Z,10.43
2023-04-18T03:08:06.246Z,10.25
2023-04-18T03:10:35.819Z,9.52
2023-04-18T03:13:03.433Z,10.02
2023-04-18T03:15:34.103Z,10.75
2023-04-18T03:20:32.584Z,10.10
2023-04-18T03:22:59.637Z,10.20
2023-04-18T03:25:29.558Z,10.45
2023-04-18T03:27:57.940Z,11.45
2023-04-18T03:30:26.034Z,10.57
2023-04-18T03:32:56.206Z,11.40
2023-04-18T03:35:23.982Z,10.43
2023-04-18T03:37:51.569Z,10.60
2023-04-18T03:40:25.351Z,11.23
2023-04-18T03:42:56.867Z,11.65
2023-04-18T03:45:23.862Z,11.38
2023-04-18T03:47:51.536Z,12.23
2023-04-18T03:50:20.084Z,11.32
2023-04-18T03:52:49.409Z,11.18
2023-04-18T03:55:17.897Z,11.18
2023-04-18T03:57:45.874Z,11.70
2023-04-18T04:00:20.912Z,11.48
2023-04-18T04:02:58.646Z,10.80
2023-04-18T04:05:25.812Z,11.20
2023-04-18T04:07:53.416Z,11.85
2023-04-18T04:10:20.803Z,11.43
2023-04-18T04:12:50.841Z,11.23
2023-04-18T04:15:18.450Z,12.00
2023-04-18T04:17:52.459Z,11.45
2023-04-18T04:20:24.896Z,11.65
2023-04-18T04:23:00.039Z,11.93
2023-04-18T04:25:31.114Z,11.85
2023-04-18T04:28:02.996Z,12.10
2023-04-18T04:30:34.245Z,12.63
2023-04-18T04:33:02.017Z,11.80
2023-04-18T04:35:29.076Z,13.38
2023-04-18T04:37:56.073Z,13.07
2023-04-18T04:40:29.605Z,12.88
2023-04-18T04:43:05.568Z,12.20
2023-04-18T04:45:38.938Z,12.10
2023-04-18T04:48:06.060Z,12.38
2023-04-18T04:50:37.896Z,11.82
2023-04-18T04:53:06.360Z,12.02
2023-04-18T04:55:33.945Z,12.73
2023-04-18T04:58:02.267Z,12.48
2023-04-18T05:00:57.310Z,12.90
2023-04-18T05:03:24.427Z,12.55
2023-04-18T05:05:51.590Z,13.15
2023-04-18T05:08:19.499Z,12.23
2023-04-18T05:10:47.574Z,12.98
2023-04-18T05:13:14.256Z,13.18
2023-04-18T05:15:41.275Z,13.30
2023-04-18T05:18:08.837Z,12.15
2023-04-18T05:20:35.961Z,14.68
2023-04-18T05:23:02.725Z,12.45
2023-04-18T05:25:29.824Z,12.77
2023-04-18T05:27:56.794Z,12.63
2023-04-18T05:30:23.499Z,12.18
2023-04-18T05:32:50.499Z,12.43
2023-04-18T05:35:17.608Z,12.18
2023-04-18T05:37:44.327Z,12.40
2023-04-18T05:40:12.108Z,12.57
2023-04-18T05:42:39.083Z,12.85
2023-04-18T05:45:06.429Z,12.10
2023-04-18T05:47:33.767Z,12.25
2023-04-18T05:50:00.729Z,12.00
2023-04-18T05:52:27.795Z,12.25
2023-04-18T05:54:54.665Z,12.27
2023-04-18T05:57:21.509Z,11.95
2023-04-18T05:59:48.358Z,11.85
2023-04-18T06:02:15.253Z,11.88
2023-04-18T06:04:42.751Z,12.32
2023-04-18T06:07:09.981Z,13.52
2023-04-18T06:09:37.126Z,12.32
2023-04-18T06:12:04.211Z,13.20
2023-04-18T06:14:31.075Z,12.73
2023-04-18T06:16:58.337Z,13.88
2023-04-18T06:19:25.557Z,13.45
2023-04-18T06:21:52.759Z,14.75
2023-04-18T06:24:19.485Z,14.68
2023-04-18T06:26:46.461Z,15.35
2023-04-18T06:29:13.360Z,15.27
2023-04-18T06:31:42.401Z,14.52
2023-04-18T06:34:09.842Z,13.95
2023-04-18T06:36:36.876Z,15.52
2023-04-18T06:39:04.249Z,14.25
2023-04-18T06:41:31.596Z,15.10
2023-04-18T06:46:28.226Z,14.35
2023-04-18T06:48:55.307Z,14.32
2023-04-18T06:51:22.460Z,14.68
2023-04-18T06:53:52.696Z,13.65
2023-04-18T06:56:20.539Z,14.65
2023-04-18T06:58:48.016Z,15.13
2023-04-18T07:01:14.843Z,17.95
2023-04-18T07:03:41.773Z,15.15
2023-04-18T07:06:10.614Z,15.82
2023-04-18T07:08:37.818Z,14.50
2023-04-18T07:11:06.025Z,17.02
2023-04-18T07:13:32.836Z,14.10
2023-04-18T07:15:59.655Z,13.48
2023-04-18T07:18:37.342Z,14.10
2023-04-18T07:21:07.872Z,17.73
2023-04-18T07:23:35.568Z,14.60
2023-04-18T07:26:03.184Z,14.50
2023-04-18T07:28:31.633Z,16.23
2023-04-18T07:30:59.195Z,17.08
2023-04-18T07:33:26.052Z,16.30
2023-04-18T07:35:53.184Z,13.60
2023-04-18T07:38:20.257Z,16.85
2023-04-18T07:40:47.079Z,13.63
2023-04-18T07:43:15.049Z,17.75
2023-04-18T07:45:43.199Z,13.15
2023-04-18T07:48:11.281Z,13.98
2023-04-18T07:50:38.259Z,14.20
2023-04-18T07:53:05.247Z,13.15
2023-04-18T07:55:32.166Z,14.30
2023-04-18T07:57:59.057Z,13.75
2023-04-18T08:00:26.430Z,13.07
2023-04-18T08:02:53.503Z,14.52
2023-04-18T08:05:20.574Z,15.18
2023-04-18T08:07:47.518Z,14.15
2023-04-18T08:10:14.423Z,13.15
2023-04-18T08:12:41.406Z,12.38
2023-04-18T08:15:08.857Z,14.35
2023-04-18T08:17:36.009Z,15.98
2023-04-18T08:20:07.151Z,14.98
2023-04-18T08:22:33.935Z,15.43
2023-04-18T08:25:05.418Z,15.25
2023-04-18T08:27:33.015Z,14.18
2023-04-18T08:30:00.677Z,15.38
2023-04-18T08:32:27.710Z,15.05
2023-04-18T08:34:55.691Z,16.48
2023-04-18T08:37:22.595Z,14.63
2023-04-18T08:39:49.418Z,15.38
2023-04-18T08:42:19.618Z,14.65
2023-04-18T08:47:14.758Z,15.00
2023-04-18T08:49:42.765Z,15.32
2023-04-18T08:52:19.624Z,15.40
2023-04-18T08:54:47.184Z,15.48
2023-04-18T08:57:29.980Z,16.05
2023-04-18T08:59:57.545Z,15.90
2023-04-18T09:02:45.236Z,15.30
2023-04-18T09:05:16.278Z,19.60
2023-04-18T09:07:43.261Z,17.48
2023-04-18T09:10:10.543Z,17.27
2023-04-18T09:12:50.593Z,17.63
2023-04-18T09:15:20.771Z,14.15
2023-04-18T09:17:50.915Z,18.20
2023-04-18T09:20:38.633Z,15.80
2023-04-18T09:23:14.433Z,18.85
2023-04-18T09:25:43.635Z,15.75
2023-04-18T09:30:52.606Z,16.38
2023-04-18T09:33:28.212Z,18.17
2023-04-18T09:35:56.539Z,18.63
2023-04-18T09:38:39.244Z,15.40
2023-04-18T09:41:10.197Z,15.07
2023-04-18T09:43:37.138Z,16.33
2023-04-18T09:46:04.455Z,17.27
2023-04-18T09:48:31.531Z,15.70
2023-04-18T09:51:00.182Z,15.95
2023-04-18T09:53:28.549Z,15.88
2023-04-18T09:55:57.535Z,13.25
2023-04-18T09:58:25.931Z,16.42
2023-04-18T10:00:53.940Z,14.80
2023-04-18T10:03:21.578Z,15.25
2023-04-18T10:05:48.762Z,15.98
2023-04-18T10:08:16.497Z,12.82
2023-04-18T10:10:43.704Z,14.45
2023-04-18T10:13:11.668Z,14.48
2023-04-18T10:15:38.818Z,16.13
2023-04-18T10:18:16.114Z,14.43
2023-04-18T10:20:44.504Z,16.63
2023-04-18T10:23:38.293Z,13.73
2023-04-18T10:26:09.595Z,12.88
2023-04-18T10:28:56.967Z,13.88
2023-04-18T10:31:29.156Z,14.60
2023-04-18T10:34:17.693Z,13.45
2023-04-18T10:37:03.970Z,13.10
2023-04-18T10:39:31.095Z,13.68
2023-04-18T10:41:58.110Z,14.45
2023-04-18T10:44:24.980Z,15.80
2023-04-18T10:46:51.761Z,13.00
2023-04-18T10:49:19.933Z,14.45
2023-04-18T10:51:48.093Z,13.68
2023-04-18T10:54:36.999Z,15.10
2023-04-18T10:57:04.681Z,13.60
2023-04-18T10:59:33.759Z,13.48
2023-04-18T11:02:19.470Z,13.20
2023-04-18T11:04:53.891Z,14.65
2023-04-18T11:07:34.398Z,13.68
2023-04-18T11:10:02.019Z,15.07
2023-04-18T11:12:33.386Z,14.32
2023-04-18T11:15:03.048Z,13.55
2023-04-18T11:17:35.795Z,15.25
2023-04-18T11:20:14.641Z,14.23
2023-04-18T11:22:53.460Z,13.63
2023-04-18T11:25:24.886Z,13.38
2023-04-18T11:27:51.819Z,13.07
2023-04-18T11:30:18.898Z,12.85
2023-04-18T11:32:45.866Z,13.00
2023-04-18T11:35:14.848Z,12.35
2023-04-18T11:37:43.328Z,12.30
2023-04-18T11:40:10.160Z,11.57
2023-04-18T11:42:39.430Z,15.07
2023-04-18T11:45:16.239Z,12.80
2023-04-18T11:47:43.461Z,12.10
2023-04-18T11:50:11.718Z,13.30
2023-04-18T11:52:40.250Z,13.25
2023-04-18T11:55:27.386Z,11.75
2023-04-18T11:57:55.724Z,12.90
2023-04-18T12:00:34.287Z,11.85
2023-04-18T12:03:04.544Z,12.30
2023-04-18T12:05:34.217Z,13.38
2023-04-18T12:08:13.259Z,12.70
2023-04-18T12:10:48.065Z,13.75
2023-04-18T12:13:15.116Z,13.73
2023-04-18T12:15:44.308Z,10.38
2023-04-18T12:18:13.114Z,12.95
2023-04-18T12:20:52.260Z,10.70
2023-04-18T12:23:36.782Z,12.70
2023-04-18T12:26:05.884Z,10.43
2023-04-18T12:28:34.293Z,11.35
2023-04-18T12:31:01.636Z,12.45
2023-04-18T12:33:28.761Z,12.70
2023-04-18T12:35:56.126Z,12.15
2023-04-18T12:38:23.603Z,10.55
2023-04-18T12:40:51.650Z,11.25
2023-04-18T12:43:19.231Z,11.32
2023-04-18T12:45:46.906Z,13.02
2023-04-18T12:48:13.857Z,13.52
2023-04-18T12:50:40.795Z,10.98
2023-04-18T12:53:07.869Z,12.18
2023-04-18T12:55:34.867Z,10.95
2023-04-18T12:58:01.877Z,11.23
2023-04-18T13:00:31.143Z,12.00
2023-04-18T13:02:58.522Z,11.85
2023-04-18T13:05:28.576Z,11.93
2023-04-18T13:08:08.553Z,12.10
2023-04-18T13:10:42.734Z,11.75
2023-04-18T13:13:09.515Z,12.40
2023-04-18T13:15:36.412Z,11.00
2023-04-18T13:18:06.211Z,10.93
2023-04-18T13:20:34.125Z,10.43
2023-04-18T13:23:02.505Z,10.70
2023-04-18T13:25:29.316Z,10.80
2023-04-18T13:27:58.399Z,9.45
2023-04-18T13:30:25.511Z,9.05
2023-04-18T13:32:52.560Z,8.98
2023-04-18T13:35:19.357Z,9.93
2023-04-18T13:37:46.303Z,9.35
2023-04-18T13:40:13.463Z,9.00
2023-04-18T13:42:40.491Z,9.77
2023-04-18T13:45:07.868Z,8.07
2023-04-18T13:47:34.972Z,8.40
2023-04-18T13:50:02.132Z,8.40
2023-04-18T13:52:28.999Z,8.77
2023-04-18T13:54:55.988Z,7.55
2023-04-18T13:57:23.244Z,6.80
2023-04-18T13:59:51.202Z,6.90
2023-04-18T14:02:18.175Z,7.68
2023-04-18T14:04:45.080Z,7.50
2023-04-18T14:07:11.943Z,7.13
2023-04-18T14:09:39.810Z,7.40
2023-04-18T14:12:07.157Z,7.55
2023-04-18T14:14:34.054Z,7.05
2023-04-18T14:17:00.800Z,7.28
2023-04-18T14:19:27.944Z,6.88
2023-04-18T14:21:54.742Z,6.75
2023-04-18T14:24:21.541Z,6.38
2023-04-18T14:26:48.557Z,5.85
2023-04-18T14:29:15.780Z,5.57
2023-04-18T14:31:42.910Z,5.40
2023-04-18T14:34:09.838Z,5.72
2023-04-18T14:36:36.644Z,6.18
2023-04-18T14:39:03.755Z,6.18
2023-04-18T14:41:30.775Z,5.93
2023-04-18T14:43:57.651Z,5.47
2023-04-18T14:46:25.360Z,6.32
2023-04-18T14:48:52.130Z,5.72
2023-04-18T14:51:18.915Z,5.38
2023-04-18T14:53:46.115Z,5.82
2023-04-18T14:56:13.592Z,5.57
2023-04-18T14:58:40.630Z,5.80
2023-04-18T15:01:07.463Z,4.82
2023-04-18T15:03:34.448Z,5.07
2023-04-18T15:06:01.779Z,5.00
2023-04-18T15:08:31.352Z,4.80
2023-04-18T15:10:59.475Z,4.55
2023-04-18T15:13:26.395Z,4.55
2023-04-18T15:15:54.354Z,3.53
2023-04-18T15:18:21.272Z,3.80
2023-04-18T15:20:48.409Z,4.10
2023-04-18T15:23:15.835Z,3.95
2023-04-18T15:25:44.169Z,4.00
2023-04-18T15:28:13.128Z,3.20
2023-04-18T15:30:39.923Z,4.75
2023-04-18T15:33:06.880Z,4.20
2023-04-18T15:35:33.992Z,3.90
2023-04-18T15:38:01.001Z,4.30
2023-04-18T15:40:27.914Z,3.78
2023-04-18T15:42:56.124Z,4.28
2023-04-18T15:45:23.329Z,4.60
2023-04-18T15:47:51.027Z,4.60
2023-04-18T15:50:17.998Z,4.70
2023-04-18T15:52:45.003Z,4.70
2023-04-18T15:55:13.235Z,5.18
2023-04-18T15:57:41.126Z,4.47
2023-04-18T16:00:12.756Z,4.78
2023-04-18T16:02:39.694Z,4.43
2023-04-18T16:05:07.496Z,4.75
2023-04-18T16:07:34.966Z,4.65
2023-04-18T16:10:05.171Z,3.92
2023-04-18T16:12:32.033Z,4.70
2023-04-18T16:14:58.870Z,4.55
2023-04-18T16:17:25.789Z,4.03
2023-04-18T16:19:52.574Z,4.38
2023-04-18T16:22:19.348Z,4.38
2023-04-18T16:24:46.188Z,4.57
2023-04-18T16:27:13.039Z,4.55
2023-04-18T16:29:40.153Z,4.05
2023-04-18T16:32:08.159Z,4.82
2023-04-18T16:34:35.273Z,4.53
2023-04-18T16:37:02.128Z,4.40
2023-04-18T16:39:29.575Z,5.55
2023-04-18T16:41:57.708Z,4.43
2023-04-18T16:44:24.458Z,4.57
2023-04-18T16:46:51.924Z,4.60
2023-04-18T16:49:20.453Z,4.97
2023-04-18T16:51:47.436Z,5.07
2023-04-18T16:54:14.596Z,4.72
2023-04-18T16:56:44.679Z,4.60
2023-04-18T16:59:11.878Z,4.68
2023-04-18T17:01:38.857Z,4.72
2023-04-18T17:04:06.113Z,4.78
2023-04-18T17:06:34.404Z,5.15
2023-04-18T17:09:02.182Z,4.75
2023-04-18T17:11:30.430Z,5.10
2023-04-18T17:13:57.674Z,5.13
2023-04-18T17:16:26.309Z,5.78
2023-04-18T17:18:54.098Z,4.72
2023-04-18T17:21:21.818Z,4.85
2023-04-18T17:23:50.020Z,5.15
2023-04-18T17:26:17.638Z,5.13
2023-04-18T17:28:45.541Z,4.40
2023-04-18T17:31:15.939Z,5.25
2023-04-18T17:33:43.947Z,5.38
2023-04-18T17:36:11.595Z,5.85
2023-04-18T17:38:40.901Z,5.50
2023-04-18T17:41:08.306Z,5.93
2023-04-18T17:43:36.662Z,5.47
2023-04-18T17:46:04.603Z,5.97
2023-04-18T17:48:32.406Z,5.55
2023-04-18T17:50:59.456Z,5.90
2023-04-18T17:53:26.996Z,5.35
2023-04-18T17:55:55.749Z,5.72
2023-04-18T17:58:23.185Z,5.95
2023-04-18T18:00:50.831Z,5.85
2023-04-18T18:03:18.585Z,5.80
2023-04-18T18:05:47.486Z,6.63
2023-04-18T18:08:15.416Z,6.13
2023-04-18T18:10:43.228Z,6.40
2023-04-18T18:13:10.933Z,7.22
2023-04-18T18:15:38.161Z,7.22
2023-04-18T18:18:05.696Z,8.30
2023-04-18T18:20:32.989Z,7.72
2023-04-18T18:23:00.442Z,7.82
2023-04-18T18:25:28.612Z,8.18
2023-04-18T18:27:55.845Z,9.00
2023-04-18T18:30:23.264Z,9.18
2023-04-18T18:32:50.851Z,9.68
2023-04-18T18:35:18.170Z,9.45
2023-04-18T18:37:45.447Z,10.10
2023-04-18T18:40:12.881Z,9.30
2023-04-18T18:42:40.177Z,10.50
2023-04-18T18:45:09.220Z,9.90
2023-04-18T18:47:39.579Z,10.15
2023-04-18T18:50:07.635Z,10.77
2023-04-18T18:52:35.055Z,10.88
2023-04-18T18:55:04.065Z,10.63
2023-04-18T18:57:31.214Z,11.55
2023-04-18T18:59:59.153Z,11.70
2023-04-18T19:02:26.401Z,10.70
2023-04-18T19:04:54.362Z,11.20
2023-04-18T19:07:22.825Z,11.15
2023-04-18T19:09:50.581Z,10.98
2023-04-18T19:12:18.127Z,11.63
2023-04-18T19:14:46.848Z,10.65
2023-04-18T19:17:14.277Z,10.98
2023-04-18T19:19:42.892Z,9.68
2023-04-18T19:22:10.229Z,10.88
2023-04-18T19:24:37.897Z,9.52
2023-04-18T19:27:05.205Z,10.57
2023-04-18T19:29:33.004Z,8.77
2023-04-18T19:32:00.105Z,9.18
2023-04-18T19:34:27.628Z,10.00
2023-04-18T19:36:55.215Z,9.48
2023-04-18T19:39:22.398Z,9.32
2023-04-18T19:41:49.509Z,9.68
2023-04-18T19:44:16.870Z,9.55
2023-04-18T19:46:44.462Z,9.93
2023-04-18T19:49:11.749Z,8.55
2023-04-18T19:51:40.197Z,9.73
2023-04-18T19:54:07.591Z,9.48
2023-04-18T19:56:35.258Z,9.57
2023-04-18T19:59:02.560Z,9.23
2023-04-18T20:01:30.494Z,8.93
2023-04-18T20:04:00.540Z,9.35
2023-04-18T20:06:28.324Z,8.77
2023-04-18T20:08:56.111Z,8.30
2023-04-18T20:11:23.889Z,8.43
2023-04-18T20:13:52.138Z,8.13
2023-04-18T20:16:19.566Z,8.80
2023-04-18T20:18:47.834Z,9.75
2023-04-18T20:21:15.775Z,9.35
2023-04-18T20:23:43.570Z,8.93
2023-04-18T20:26:10.606Z,8.50
2023-04-18T20:28:38.036Z,9.18
2023-04-18T20:31:05.647Z,10.25
2023-04-18T20:33:33.139Z,9.48
2023-04-18T20:36:00.628Z,9.52
2023-04-18T20:38:29.906Z,9.45
2023-04-18T20:41:00.824Z,10.80
2023-04-18T20:43:28.357Z,9.77
2023-04-18T20:45:58.081Z,9.18
2023-04-18T20:48:26.736Z,9.70
2023-04-18T20:50:54.089Z,9.15
2023-04-18T20:53:22.556Z,8.93
2023-04-18T20:55:49.975Z,10.23
2023-04-18T20:58:17.964Z,9.25
2023-04-18T21:00:45.310Z,8.60
2023-04-18T21:03:17.235Z,8.35
2023-04-18T21:05:46.235Z,9.02
2023-04-18T21:08:13.721Z,9.57
2023-04-18T21:10:40.704Z,8.50
2023-04-18T21:13:09.279Z,10.10
2023-04-18T21:15:36.719Z,11.40
2023-04-18T21:18:04.191Z,9.88
2023-04-18T21:20:31.886Z,9.07
2023-04-18T21:22:59.409Z,10.02
2023-04-18T21:25:26.752Z,9.48
2023-04-18T21:27:54.161Z,9.07
2023-04-18T21:30:21.723Z,9.35
2023-04-18T21:32:51.718Z,10.05
2023-04-18T21:35:20.734Z,9.45
2023-04-18T21:37:49.533Z,9.43
2023-04-18T21:40:16.622Z,9.43
2023-04-18T21:42:44.585Z,9.80
2023-04-18T21:45:11.794Z,9.80
2023-04-18T21:47:39.590Z,10.05
2023-04-18T21:50:07.677Z,9.75
2023-04-18T21:52:35.168Z,9.80
2023-04-18T21:55:02.364Z,9.52
2023-04-18T21:57:30.112Z,8.95
2023-04-18T21:59:57.485Z,10.43
2023-04-18T22:02:25.521Z,9.90
2023-04-18T22:04:52.995Z,10.63
2023-04-18T22:07:20.043Z,9.57
2023-04-18T22:09:47.331Z,10.32
2023-04-18T22:12:15.779Z,10.57
2023-04-18T22:14:47.754Z,11.38
2023-04-18T22:17:15.165Z,10.55
2023-04-18T22:19:44.583Z,11.10
2023-04-18T22:22:12.017Z,10.17
2023-04-18T22:24:39.765Z,11.35
2023-04-18T22:27:07.222Z,10.27
2023-04-18T22:29:34.930Z,10.20
2023-04-18T22:32:02.014Z,10.23
2023-04-18T22:34:29.205Z,10.95
2023-04-18T22:36:56.092Z,11.88
2023-04-18T22:39:23.361Z,9.23
2023-04-18T22:41:51.320Z,10.82
2023-04-18T22:44:18.429Z,10.05
2023-04-18T22:46:47.675Z,10.65
2023-04-18T22:49:14.849Z,9.90
2023-04-18T22:51:44.094Z,10.32
2023-04-18T22:54:11.667Z,11.07
2023-04-18T22:56:38.867Z,10.73
2023-04-18T22:59:06.246Z,10.63
2023-04-18T23:01:33.624Z,10.93
2023-04-18T23:04:01.498Z,11.30
2023-04-18T23:06:30.053Z,11.13
2023-04-18T23:08:57.805Z,11.55
2023-04-18T23:11:25.552Z,10.60
2023-04-18T23:13:52.328Z,10.77
2023-04-18T23:16:19.522Z,11.82
2023-04-18T23:18:46.573Z,11.10
2023-04-18T23:21:14.393Z,12.73
2023-04-18T23:23:41.884Z,12.73
2023-04-18T23:26:16.191Z,11.43
2023-04-18T23:28:43.417Z,12.43
2023-04-18T23:31:11.050Z,11.05
2023-04-18T23:33:38.756Z,11.20
2023-04-18T23:36:06.738Z,10.77
2023-04-18T23:38:33.788Z,10.40
2023-04-18T23:41:00.952Z,11.27
2023-04-18T23:43:28.829Z,12.15
2023-04-18T23:45:56.178Z,11.60
2023-04-18T23:48:23.623Z,10.90
2023-04-18T23:50:52.702Z,12.13
2023-04-18T23:53:21.138Z,12.82
2023-04-18T23:55:51.093Z,12.07
2023-04-18T23:58:18.445Z,11.95
